Airfield :
LOGIN :

Register | Disclaimer

   EN    FR    IT 

 










Legend :    VFR   Marginal VFR   IFR   Intensive IFR   Very Intensive IFR
Visi :
Ceiling :
>= 8 km
>= 3000ft
5 to 8 km
1000 to 3000 ft
1500m to 5 km
500 to 1000 ft
800 to 1500m
200 to 500 ft
< 800m
< 200 ft
Symbols :   Thunderstorms  Fog  Heavy snow  Heavy precipitations  Wind > 20 kt
SIGMETs :     Misc.  Thunderstorms  Icing  Turbulence  Mountain Waves  Volcanic Ashes






- Airport Elevation : 113 ft


EKRS - Ringsted

CURRENT METAR :
  • 071020Z AUTO 21010KT 160V260 9999 NCD 17/M40 Q1005

EXPIRED METARs :
  • 070950Z AUTO 21009KT 160V290 9999 NCD 17/M40 Q1004
  • 070920Z AUTO 21008KT 150V280 9999 NCD 16/// Q1004
  • 070850Z AUTO 22008KT 180V330 9999 NCD 15/// Q1004
  • 070820Z AUTO 22010KT 140V260 9999 NCD 15/// Q1004
  • 070750Z AUTO 21011KT 160V250 9999 NCD 15/// Q1004

TAF N/A



MET'MAP, your aeronautical weather chart ! - Copyright ORBIFLY December 2007 - Disclaimer

ORBIFLY MET'MAP TEAM :

Programming & Development : Alexandra Zaïnal
Concept & original design : Baudouin d'Aumeries
Assistance for programming : Marc-Olivier Méhu
Technical & hardware support : Manuel Goepfert

Contact : metmap@orbifly.com




SOURCES & CREDITS :

   NOAA